»·PEaware :: UAL1850 KSFO-KLAS

UAL1850 :: KSFO-KLAS

FLIGHT INFORMATION

Flight Status: Arrived
Operator:
United Airlines
More flights by this operator :: More flights under this callsign
Pilot: Jacob H. (10561)
Aircraft: BOEING 737-800
(B738)
More flights by this aircraft type
Origin: KSFO San Francisco Intl
United States
Destination: KLAS McCarran Intl
United States
More flights between these airports :: More routes between these airports
Route: +WESLA3 NTELL Q162 ESSAA BTY SUNST4
File this flight plan on PilotEdge
Remarks:
Altitude:
(Current/Filed)
37,000ft
Speed:
(Current/Filed)
459kts
Departed: 09-Jan-18 05:23 PM
Arrived: 09-Jan-18 06:35 PM
Distance/Time
Traveled:
359nm/1:12
Distance/Time
To Go:
Arrived

Flight Plot

Page will automatically refresh every two minutes.

Flight plan parsing failed; only flown route is shown


Map Options




Map Legend


Flown Route
Filed Route
Departure Airport
Arrival Airport
Navaid (VOR, NDB)
Fix

Horizontal Profiles

Position Reports

Time Latitude Longitude Heading Altitude Ground
Speed
09-Jan-18 16:54 37.619185 -122.383515 291 30ft 0kts
09-Jan-18 16:55 37.619186 -122.383515 291 30ft 0kts
09-Jan-18 16:56 37.619186 -122.383515 291 30ft 0kts
09-Jan-18 16:57 37.619186 -122.383515 291 30ft 0kts
09-Jan-18 16:58 37.619186 -122.383515 291 30ft 0kts
09-Jan-18 16:59 37.619186 -122.383515 291 30ft 0kts
09-Jan-18 17:00 37.619186 -122.383515 291 30ft 0kts
09-Jan-18 17:01 37.619186 -122.383515 291 30ft 0kts
09-Jan-18 17:02 37.619186 -122.383515 291 30ft 0kts
09-Jan-18 17:03 37.619186 -122.383515 291 30ft 0kts
09-Jan-18 17:04 37.619186 -122.383515 291 30ft 0kts
09-Jan-18 17:05 37.619185 -122.383514 291 31ft 0kts
09-Jan-18 17:06 37.619000 -122.383066 331 31ft 2kts
09-Jan-18 17:07 37.618646 -122.383112 27 31ft 0kts
09-Jan-18 17:08 37.618512 -122.383192 27 30ft 0kts
09-Jan-18 17:09 37.618342 -122.383296 27 30ft 0kts
09-Jan-18 17:10 37.618203 -122.383380 27 31ft 0kts
09-Jan-18 17:11 37.618075 -122.383458 27 31ft 0kts
09-Jan-18 17:12 37.618072 -122.383459 27 31ft 0kts
09-Jan-18 17:13 37.618072 -122.383459 27 31ft 0kts
09-Jan-18 17:14 37.618072 -122.383459 27 31ft 0kts
09-Jan-18 17:15 37.618073 -122.383459 27 31ft 0kts
09-Jan-18 17:16 37.618073 -122.383459 27 31ft 0kts
09-Jan-18 17:17 37.618072 -122.383459 27 31ft 0kts
09-Jan-18 17:18 37.618072 -122.383459 27 31ft 0kts
09-Jan-18 17:19 37.618073 -122.383459 27 31ft 0kts
09-Jan-18 17:20 37.618073 -122.383459 27 31ft 0kts
09-Jan-18 17:21 37.618073 -122.383459 27 31ft 0kts
09-Jan-18 17:22 37.619201 -122.382769 27 30ft 0kts
09-Jan-18 17:23 37.619478 -122.381477 113 31ft 15kts
09-Jan-18 17:24 37.618047 -122.377885 111 26ft 16kts
09-Jan-18 17:25 37.616160 -122.372648 117 13ft 20kts
09-Jan-18 17:26 37.613514 -122.367386 119 11ft 17kts
09-Jan-18 17:27 37.610815 -122.361038 117 7ft 18kts
09-Jan-18 17:28 37.610921 -122.359125 36 8ft 0kts
09-Jan-18 17:29 37.615839 -122.368305 296 12ft 138kts
09-Jan-18 17:30 37.639517 -122.420319 296 2404ft 207kts
09-Jan-18 17:31 37.667439 -122.488846 286 5530ft 233kts
09-Jan-18 17:32 37.618999 -122.528276 166 8859ft 292kts
09-Jan-18 17:33 37.538034 -122.494802 163 11652ft 339kts
09-Jan-18 17:34 37.462236 -122.426107 125 15040ft 357kts
09-Jan-18 17:35 37.409214 -122.326312 105 17962ft 373kts
09-Jan-18 17:36 37.383820 -122.207975 103 18924ft 392kts
09-Jan-18 17:37 37.355161 -122.076430 105 20789ft 408kts
09-Jan-18 17:38 37.325681 -121.940722 106 23668ft 422kts
09-Jan-18 17:39 37.294469 -121.796122 103 26039ft 443kts
09-Jan-18 17:40 37.262575 -121.647022 107 28607ft 449kts
09-Jan-18 17:41 37.230092 -121.495235 101 31020ft 449kts
09-Jan-18 17:42 37.199474 -121.350692 97 33860ft 425kts
09-Jan-18 17:43 37.170074 -121.210844 98 35391ft 427kts
09-Jan-18 17:44 37.140444 -121.069440 98 36819ft 427kts
09-Jan-18 17:45 37.109712 -120.921788 99 36853ft 462kts
09-Jan-18 17:46 37.076838 -120.763145 99 36845ft 492kts
09-Jan-18 17:47 37.043242 -120.599932 99 36840ft 492kts
09-Jan-18 17:48 37.009367 -120.434151 98 36842ft 492kts
09-Jan-18 17:49 36.976590 -120.272505 99 36837ft 493kts
09-Jan-18 17:50 36.943496 -120.108332 99 36838ft 493kts
09-Jan-18 17:51 36.910431 -119.943169 99 36840ft 494kts
09-Jan-18 17:52 36.930466 -119.791950 58 36841ft 458kts
09-Jan-18 17:53 36.977811 -119.645497 60 36841ft 460kts
09-Jan-18 17:54 37.024605 -119.499111 60 36842ft 461kts
09-Jan-18 17:55 37.071361 -119.353403 60 36842ft 461kts
09-Jan-18 17:56 37.118929 -119.205747 60 36835ft 462kts
09-Jan-18 17:57 37.167083 -119.056833 60 36836ft 463kts
09-Jan-18 17:58 37.213926 -118.912506 60 36815ft 462kts
09-Jan-18 17:59 37.261968 -118.765057 60 36824ft 464kts
09-Jan-18 18:00 37.287068 -118.604100 77 36786ft 480kts
09-Jan-18 18:01 37.301575 -118.437324 76 36785ft 481kts
09-Jan-18 18:02 37.316138 -118.273666 77 36778ft 481kts
09-Jan-18 18:03 37.331174 -118.107102 77 36779ft 482kts
09-Jan-18 18:04 37.346488 -117.939993 76 36780ft 482kts
09-Jan-18 18:05 37.342607 -117.799945 92 36779ft 495kts
09-Jan-18 18:06 37.324303 -117.602475 93 36782ft 493kts
09-Jan-18 18:07 37.311426 -117.459662 93 36836ft 493kts
09-Jan-18 18:08 37.274491 -117.268273 126 36820ft 484kts
09-Jan-18 18:09 37.209464 -117.164853 129 36077ft 443kts
09-Jan-18 18:10 37.123619 -117.024254 127 33073ft 431kts
09-Jan-18 18:11 37.058331 -116.928165 145 30988ft 443kts
09-Jan-18 18:12 36.932876 -116.839339 152 28044ft 448kts
09-Jan-18 18:13 36.847097 -116.779893 151 25253ft 444kts
09-Jan-18 18:14 36.753996 -116.681157 130 23769ft 439kts
09-Jan-18 18:15 36.673776 -116.567702 129 23224ft 441kts
09-Jan-18 18:16 36.595396 -116.456495 130 21949ft 418kts
09-Jan-18 18:17 36.519212 -116.348265 131 21268ft 418kts
09-Jan-18 18:18 36.443783 -116.241077 132 20455ft 416kts
09-Jan-18 18:19 36.369327 -116.136880 132 19020ft 398kts
09-Jan-18 18:20 36.297672 -116.036499 132 17883ft 388kts
09-Jan-18 18:21 36.224578 -115.933948 133 16415ft 398kts
09-Jan-18 18:22 36.176801 -115.826287 111 15981ft 347kts
09-Jan-18 18:23 36.141059 -115.715304 111 15982ft 348kts
09-Jan-18 18:24 36.105740 -115.605530 111 14197ft 335kts
09-Jan-18 18:25 36.072064 -115.501841 112 12144ft 306kts
09-Jan-18 18:26 36.042840 -115.411749 112 11299ft 279kts
09-Jan-18 18:27 36.027068 -115.324773 95 10379ft 273kts
09-Jan-18 18:28 36.021073 -115.237668 97 9361ft 265kts
09-Jan-18 18:29 36.015063 -115.150253 95 8268ft 261kts
09-Jan-18 18:30 36.010529 -115.064948 95 6722ft 236kts
09-Jan-18 18:31 36.006537 -114.988185 94 5486ft 222kts
09-Jan-18 18:32 36.001669 -114.915131 94 4981ft 218kts
09-Jan-18 18:33 35.997445 -114.842553 82 5017ft 212kts
09-Jan-18 18:34 36.036497 -114.820224 321 4992ft 182kts
09-Jan-18 18:35 36.057798 -114.875776 291 4979ft 183kts
09-Jan-18 18:36 36.072081 -114.935493 274 4982ft 183kts
09-Jan-18 18:37 36.073673 -114.997347 270 4107ft 167kts
09-Jan-18 18:38 36.073745 -115.048303 271 3313ft 156kts
09-Jan-18 18:39 36.073932 -115.098891 267 2538ft 153kts
09-Jan-18 18:40 36.073663 -115.148414 268 2114ft 143kts
09-Jan-18 18:41 36.074870 -115.161273 358 2162ft 0kts
09-Jan-18 18:42 36.075236 -115.161282 359 2161ft 13kts
09-Jan-18 18:43 36.078030 -115.159732 90 2147ft 19kts
09-Jan-18 18:44 36.077934 -115.149515 88 2109ft 27kts

Navigation Log

Ident Type
Flight plan parsing failed, navigation log unavailable